Time;durP1;ratioP1;P1;durP2;ratioP2;P2;SDS_P1;SDS_P2;PMS_P1;PMS_P2;Temp;Humidity;BMP_temperature;BMP_pressure;BME280_temperature;BME280_humidity;BME280_pressure;Samples;Min_cycle;Max_cycle;Signal;HPM_P1;HPM_P2
2024/01/15 00:01:26;;;;;;;5.90;1.60;;;;;;;;;;5078767;28;20766;-52
2024/01/15 00:03:52;;;;;;;8.63;1.63;;;;;;;;;;5095752;28;20298;-54
2024/01/15 00:06:19;;;;;;;7.10;2.20;;;;;;;;;;5076745;28;20207;-56
2024/01/15 00:08:44;;;;;;;5.43;1.27;;;;;;;;;;5077953;28;20207;-55
2024/01/15 00:11:10;;;;;;;4.50;1.13;;;;;;;;;;5077161;28;20216;-54
2024/01/15 00:13:36;;;;;;;14.07;1.80;;;;;;;;;;5076737;28;20231;-54
2024/01/15 00:16:05;;;;;;;5.87;1.40;;;;;;;;;;5094024;28;20184;-54
2024/01/15 00:18:32;;;;;;;5.30;1.77;;;;;;;;;;5075998;28;20306;-54
2024/01/15 00:20:58;;;;;;;6.47;1.50;;;;;;;;;;5075421;28;20173;-56
2024/01/15 00:23:24;;;;;;;6.47;1.40;;;;;;;;;;5076186;28;20172;-54
2024/01/15 00:25:51;;;;;;;4.83;1.23;;;;;;;;;;5075796;28;20543;-55
2024/01/15 00:28:17;;;;;;;5.93;1.33;;;;;;;;;;5093488;28;20172;-56
2024/01/15 00:30:43;;;;;;;8.20;1.43;;;;;;;;;;5076128;28;20187;-55
2024/01/15 00:33:12;;;;;;;9.57;1.73;;;;;;;;;;5093649;28;20168;-52
2024/01/15 00:35:38;;;;;;;6.43;1.30;;;;;;;;;;5076667;28;20172;-54
2024/01/15 00:38:04;;;;;;;9.13;1.70;;;;;;;;;;5092569;28;20181;-54
2024/01/15 00:40:30;;;;;;;6.47;1.83;;;;;;;;;;5075101;28;20183;-55
2024/01/15 00:42:55;;;;;;;4.17;1.70;;;;;;;;;;5076507;28;20263;-52
2024/01/15 00:45:23;;;;;;;5.87;1.87;;;;;;;;;;5076628;28;20168;-55
2024/01/15 00:47:49;;;;;;;9.00;2.13;;;;;;;;;;5077275;28;20174;-56
2024/01/15 00:50:15;;;;;;;9.53;2.03;;;;;;;;;;5076518;28;20524;-55
2024/01/15 00:52:42;;;;;;;11.20;1.93;;;;;;;;;;5078213;28;20563;-53
2024/01/15 00:55:08;;;;;;;6.43;1.23;;;;;;;;;;5099318;28;20172;-57
2024/01/15 00:57:34;;;;;;;4.67;1.37;;;;;;;;;;5081004;28;20543;-56
2024/01/15 01:00:00;;;;;;;7.80;1.60;;;;;;;;;;5080433;28;20208;-54
2024/01/15 01:02:26;;;;;;;4.70;1.23;;;;;;;;;;5099065;28;20199;-56
2024/01/15 01:04:52;;;;;;;8.87;2.70;;;;;;;;;;5081083;28;20196;-55
2024/01/15 01:07:19;;;;;;;7.83;1.37;;;;;;;;;;5097477;28;20582;-52
2024/01/15 01:09:45;;;;;;;6.90;1.63;;;;;;;;;;5080168;28;20191;-54
2024/01/15 01:12:11;;;;;;;4.33;1.37;;;;;;;;;;5079456;28;20191;-50
2024/01/15 01:14:37;;;;;;;9.80;1.80;;;;;;;;;;5077732;28;20183;-56
2024/01/15 01:17:03;;;;;;;11.17;2.23;;;;;;;;;;5079697;28;20172;-55
2024/01/15 01:19:30;;;;;;;8.13;1.73;;;;;;;;;;5079773;28;20395;-52
2024/01/15 01:21:56;;;;;;;10.80;2.50;;;;;;;;;;5080312;28;20589;-52
2024/01/15 01:24:22;;;;;;;1.87;1.17;;;;;;;;;;5097393;28;20172;-51
2024/01/15 01:26:48;;;;;;;7.17;1.53;;;;;;;;;;5078980;28;20176;-53
2024/01/15 01:29:14;;;;;;;6.57;1.80;;;;;;;;;;5079652;28;20179;-54
2024/01/15 01:31:44;;;;;;;5.20;2.03;;;;;;;;;;5080501;28;20180;-55
2024/01/15 01:34:10;;;;;;;14.67;2.00;;;;;;;;;;5079205;28;20643;-53
2024/01/15 01:36:36;;;;;;;4.37;1.50;;;;;;;;;;5079462;28;20540;-55
2024/01/15 01:39:02;;;;;;;3.10;1.00;;;;;;;;;;5080473;28;20214;-54
2024/01/15 01:41:28;;;;;;;8.53;2.50;;;;;;;;;;5097427;28;20183;-56
2024/01/15 01:43:55;;;;;;;9.30;1.10;;;;;;;;;;5097922;28;20183;-50
2024/01/15 01:46:21;;;;;;;8.30;1.67;;;;;;;;;;5079828;28;20179;-56
2024/01/15 01:48:47;;;;;;;7.87;1.60;;;;;;;;;;5080125;28;20172;-55
2024/01/15 01:51:13;;;;;;;12.23;1.90;;;;;;;;;;5079972;28;20176;-53
2024/01/15 01:53:39;;;;;;;7.97;1.43;;;;;;;;;;5080562;28;20176;-53
2024/01/15 01:56:05;;;;;;;7.30;1.67;;;;;;;;;;5080227;28;20299;-56
2024/01/15 01:58:32;;;;;;;6.77;1.97;;;;;;;;;;5097225;28;20204;-55
2024/01/15 02:00:59;;;;;;;8.83;1.70;;;;;;;;;;5079322;28;20168;-55
2024/01/15 02:03:25;;;;;;;9.50;1.37;;;;;;;;;;5078602;28;20329;-56
2024/01/15 02:05:51;;;;;;;7.80;1.63;;;;;;;;;;5096410;28;20683;-54
2024/01/15 02:08:17;;;;;;;6.27;1.43;;;;;;;;;;5079130;28;20501;-53
2024/01/15 02:10:43;;;;;;;11.23;2.40;;;;;;;;;;5097121;28;20179;-56
2024/01/15 02:13:09;;;;;;;10.00;2.37;;;;;;;;;;5079505;28;20235;-56
2024/01/15 02:15:35;;;;;;;12.20;2.60;;;;;;;;;;5079026;28;20172;-53
2024/01/15 02:18:02;;;;;;;3.57;1.00;;;;;;;;;;5078262;28;20192;-53
2024/01/15 02:20:28;;;;;;;3.13;0.97;;;;;;;;;;5079072;28;20267;-57
2024/01/15 02:22:54;;;;;;;7.63;1.20;;;;;;;;;;5080292;28;20168;-56
2024/01/15 02:25:21;;;;;;;5.67;1.47;;;;;;;;;;5081136;28;20238;-53
2024/01/15 02:27:46;;;;;;;5.00;1.77;;;;;;;;;;5081384;28;20457;-55
2024/01/15 02:30:13;;;;;;;7.03;1.60;;;;;;;;;;5081813;28;20172;-54
2024/01/15 02:32:39;;;;;;;7.67;1.43;;;;;;;;;;5090926;28;20176;-56
2024/01/15 02:35:05;;;;;;;5.67;1.37;;;;;;;;;;5099074;28;20231;-56
2024/01/15 02:37:31;;;;;;;7.40;1.47;;;;;;;;;;5098360;28;20671;-54
2024/01/15 02:39:57;;;;;;;9.33;2.50;;;;;;;;;;5093932;28;20208;-55
2024/01/15 02:42:23;;;;;;;6.17;1.17;;;;;;;;;;5095875;28;20559;-52
2024/01/15 02:44:49;;;;;;;6.37;1.33;;;;;;;;;;5094864;28;20168;-56
2024/01/15 02:47:15;;;;;;;7.33;2.20;;;;;;;;;;5095141;28;20292;-54
2024/01/15 02:49:41;;;;;;;9.30;2.13;;;;;;;;;;5096629;28;20179;-54
2024/01/15 02:52:07;;;;;;;11.23;1.57;;;;;;;;;;5095607;28;20194;-51
2024/01/15 02:54:33;;;;;;;13.93;2.10;;;;;;;;;;5093932;28;20549;-53
2024/01/15 02:56:59;;;;;;;10.37;2.17;;;;;;;;;;5096322;28;20176;-53
2024/01/15 02:59:25;;;;;;;11.37;1.70;;;;;;;;;;5095260;28;20355;-54
2024/01/15 03:01:51;;;;;;;4.57;1.23;;;;;;;;;;5095406;28;20444;-55
2024/01/15 03:04:17;;;;;;;8.37;1.60;;;;;;;;;;5096007;28;20255;-55
2024/01/15 03:06:43;;;;;;;10.13;2.30;;;;;;;;;;5093249;28;20168;-54
2024/01/15 03:09:09;;;;;;;5.07;1.40;;;;;;;;;;5094018;28;20172;-52
2024/01/15 03:11:38;;;;;;;4.73;2.03;;;;;;;;;;5096025;28;20321;-54
2024/01/15 03:14:04;;;;;;;5.97;1.63;;;;;;;;;;5095439;28;20280;-56
2024/01/15 03:16:30;;;;;;;3.23;1.20;;;;;;;;;;5098409;28;20176;-55
2024/01/15 03:18:56;;;;;;;6.80;1.20;;;;;;;;;;5098163;28;20196;-56
2024/01/15 03:21:22;;;;;;;5.43;1.43;;;;;;;;;;5097770;28;20233;-55
2024/01/15 03:23:50;;;;;;;7.30;1.80;;;;;;;;;;5098857;28;20291;-52
2024/01/15 03:26:16;;;;;;;16.63;1.73;;;;;;;;;;5098310;28;20164;-52
2024/01/15 03:28:41;;;;;;;5.57;1.70;;;;;;;;;;5098258;28;20284;-54
2024/01/15 03:31:08;;;;;;;9.53;2.37;;;;;;;;;;5097322;28;20176;-56
2024/01/15 03:33:34;;;;;;;11.43;2.13;;;;;;;;;;5097409;28;20203;-54
2024/01/15 03:36:01;;;;;;;10.60;1.80;;;;;;;;;;5097910;28;20182;-56
2024/01/15 03:38:29;;;;;;;8.53;2.13;;;;;;;;;;5097392;28;20227;-56
2024/01/15 03:40:55;;;;;;;9.77;1.97;;;;;;;;;;5097742;28;20214;-53
2024/01/15 03:43:21;;;;;;;9.53;2.53;;;;;;;;;;5098146;28;20164;-53
2024/01/15 03:45:46;;;;;;;10.47;2.13;;;;;;;;;;5097754;28;20235;-57
2024/01/15 03:48:12;;;;;;;9.13;1.93;;;;;;;;;;5097460;28;20183;-55
2024/01/15 03:50:38;;;;;;;7.10;1.80;;;;;;;;;;5098596;28;20165;-56
2024/01/15 03:53:04;;;;;;;8.97;1.70;;;;;;;;;;5096907;28;20168;-56
2024/01/15 03:55:30;;;;;;;11.37;2.70;;;;;;;;;;5096332;28;20242;-54
2024/01/15 03:57:56;;;;;;;14.73;2.60;;;;;;;;;;5095910;28;20180;-56
2024/01/15 04:00:23;;;;;;;10.33;1.73;;;;;;;;;;5095460;28;20211;-53
2024/01/15 04:02:49;;;;;;;11.27;2.23;;;;;;;;;;5095026;28;20175;-51
2024/01/15 04:05:14;;;;;;;10.33;1.50;;;;;;;;;;5095376;28;20168;-55
2024/01/15 04:07:40;;;;;;;13.77;3.70;;;;;;;;;;5096286;28;20237;-55
2024/01/15 04:10:06;;;;;;;8.83;2.60;;;;;;;;;;5096425;28;20237;-49
2024/01/15 04:12:32;;;;;;;10.30;2.30;;;;;;;;;;5096812;28;20230;-53
2024/01/15 04:14:58;;;;;;;13.13;2.53;;;;;;;;;;5095594;28;20176;-54
2024/01/15 04:17:24;;;;;;;10.80;2.40;;;;;;;;;;5095587;28;20277;-51
2024/01/15 04:19:50;;;;;;;8.40;2.10;;;;;;;;;;5096349;28;20265;-54
2024/01/15 04:22:16;;;;;;;10.70;1.97;;;;;;;;;;5095753;28;20160;-53
2024/01/15 04:24:42;;;;;;;12.37;2.17;;;;;;;;;;5096455;28;20172;-56
2024/01/15 04:27:08;;;;;;;16.10;2.33;;;;;;;;;;5095160;28;20174;-57
2024/01/15 04:29:34;;;;;;;8.80;1.80;;;;;;;;;;5096784;28;20172;-55
2024/01/15 04:32:00;;;;;;;14.23;3.07;;;;;;;;;;5095945;28;20168;-53
2024/01/15 04:34:26;;;;;;;11.17;3.10;;;;;;;;;;5095744;28;20182;-56
2024/01/15 04:36:52;;;;;;;15.00;2.40;;;;;;;;;;5096261;28;20176;-55
2024/01/15 04:39:18;;;;;;;8.33;2.87;;;;;;;;;;5094851;28;20219;-55
2024/01/15 04:41:44;;;;;;;16.13;1.70;;;;;;;;;;5094857;28;20172;-53
2024/01/15 04:44:10;;;;;;;12.97;2.20;;;;;;;;;;5091825;28;20176;-54
2024/01/15 04:46:36;;;;;;;25.13;3.60;;;;;;;;;;5092126;28;20179;-57
2024/01/15 04:52:05;;;;;;;14.23;2.30;;;;;;;;;;5092141;28;20355;-56
2024/01/15 04:54:31;;;;;;;8.60;2.07;;;;;;;;;;5090859;28;20460;-56
2024/01/15 04:56:57;;;;;;;14.67;2.50;;;;;;;;;;5089777;28;20202;-58
2024/01/15 04:59:25;;;;;;;9.03;2.30;;;;;;;;;;5090391;28;20219;-54
2024/01/15 05:01:51;;;;;;;16.33;2.67;;;;;;;;;;5089715;28;20215;-56
2024/01/15 05:04:16;;;;;;;17.93;3.00;;;;;;;;;;5089746;28;20207;-53
2024/01/15 05:06:42;;;;;;;15.90;2.53;;;;;;;;;;5091026;28;20353;-53
2024/01/15 05:09:08;;;;;;;15.37;3.03;;;;;;;;;;5090532;28;20172;-54
2024/01/15 05:11:36;;;;;;;21.60;4.27;;;;;;;;;;5091609;28;20172;-52
2024/01/15 05:14:02;;;;;;;12.23;3.73;;;;;;;;;;5091423;28;20235;-56
2024/01/15 05:16:36;;;;;;;7.57;2.07;;;;;;;;;;5094535;28;20172;-54
2024/01/15 05:19:02;;;;;;;12.87;4.03;;;;;;;;;;5094877;28;20298;-57
2024/01/15 05:21:28;;;;;;;16.90;2.10;;;;;;;;;;5094583;28;20226;-55
2024/01/15 05:23:54;;;;;;;13.70;3.13;;;;;;;;;;5095466;28;20176;-56
2024/01/15 05:26:20;;;;;;;10.63;2.03;;;;;;;;;;5095110;28;20655;-57
2024/01/15 05:28:46;;;;;;;17.03;2.20;;;;;;;;;;5095141;28;20301;-56
2024/01/15 05:31:12;;;;;;;16.93;2.33;;;;;;;;;;5093822;28;20168;-55
2024/01/15 05:33:38;;;;;;;7.83;2.63;;;;;;;;;;5093421;28;20183;-57
2024/01/15 05:36:05;;;;;;;9.57;2.97;;;;;;;;;;5093418;28;20168;-55
2024/01/15 05:38:30;;;;;;;10.93;2.90;;;;;;;;;;5093595;28;20285;-54
2024/01/15 05:40:56;;;;;;;17.53;2.27;;;;;;;;;;5096134;28;20176;-54
2024/01/15 05:43:22;;;;;;;13.80;2.53;;;;;;;;;;5096357;28;20233;-57
2024/01/15 05:45:48;;;;;;;17.30;2.60;;;;;;;;;;5096507;28;20168;-53
2024/01/15 05:48:14;;;;;;;8.50;2.33;;;;;;;;;;5097370;28;20549;-56
2024/01/15 05:50:40;;;;;;;18.77;3.43;;;;;;;;;;5097957;28;20211;-57
2024/01/15 05:53:06;;;;;;;18.70;2.73;;;;;;;;;;5097134;28;20190;-55
2024/01/15 05:55:32;;;;;;;13.47;2.50;;;;;;;;;;5098672;28;20522;-55
2024/01/15 05:57:58;;;;;;;13.87;2.33;;;;;;;;;;5097100;28;20427;-55
2024/01/15 06:00:24;;;;;;;11.30;2.20;;;;;;;;;;5095878;28;20513;-54
2024/01/15 06:02:50;;;;;;;8.57;2.77;;;;;;;;;;5098019;28;20168;-57
2024/01/15 06:05:16;;;;;;;15.40;2.70;;;;;;;;;;5096625;28;20590;-54
2024/01/15 06:07:42;;;;;;;11.40;2.43;;;;;;;;;;5097126;28;20559;-52
2024/01/15 06:10:08;;;;;;;14.13;3.10;;;;;;;;;;5096445;28;20179;-55
2024/01/15 06:12:34;;;;;;;17.10;3.93;;;;;;;;;;5096846;28;20228;-57
2024/01/15 06:15:00;;;;;;;10.33;2.17;;;;;;;;;;5097244;28;20208;-55
2024/01/15 06:17:26;;;;;;;11.50;2.53;;;;;;;;;;5097382;28;20225;-53
2024/01/15 06:19:52;;;;;;;12.27;3.10;;;;;;;;;;5097597;28;20210;-55
2024/01/15 06:22:18;;;;;;;12.67;2.63;;;;;;;;;;5097076;28;20236;-54
2024/01/15 06:24:44;;;;;;;14.13;2.60;;;;;;;;;;5096760;28;20613;-55
2024/01/15 06:27:10;;;;;;;14.00;3.23;;;;;;;;;;5096291;28;20580;-54
2024/01/15 06:29:38;;;;;;;14.83;3.10;;;;;;;;;;5096869;28;20240;-54
2024/01/15 06:32:04;;;;;;;12.00;1.90;;;;;;;;;;5095278;28;20173;-55
2024/01/15 06:34:31;;;;;;;13.47;1.93;;;;;;;;;;5095620;28;20168;-55
2024/01/15 06:36:57;;;;;;;13.90;2.30;;;;;;;;;;5094841;28;20237;-55
2024/01/15 06:39:23;;;;;;;12.60;1.90;;;;;;;;;;5095833;28;20242;-54
2024/01/15 06:41:49;;;;;;;20.07;3.37;;;;;;;;;;5095453;28;20172;-55
2024/01/15 06:44:15;;;;;;;10.13;3.03;;;;;;;;;;5094905;28;20175;-56
2024/01/15 06:46:45;;;;;;;8.40;2.13;;;;;;;;;;5093537;28;20180;-56
2024/01/15 06:49:11;;;;;;;13.40;3.33;;;;;;;;;;5092914;28;20179;-55
2024/01/15 06:51:38;;;;;;;9.30;2.33;;;;;;;;;;5092747;28;20727;-56
2024/01/15 06:54:04;;;;;;;9.97;2.13;;;;;;;;;;5093348;28;20442;-56
2024/01/15 06:56:32;;;;;;;13.83;2.47;;;;;;;;;;5093632;28;20418;-55
2024/01/15 06:58:58;;;;;;;15.87;3.10;;;;;;;;;;5094364;28;20243;-57
2024/01/15 07:01:24;;;;;;;14.43;2.53;;;;;;;;;;5095806;28;20164;-57
2024/01/15 07:03:50;;;;;;;13.53;2.83;;;;;;;;;;5094790;28;20174;-54
2024/01/15 07:06:16;;;;;;;17.23;2.27;;;;;;;;;;5094496;28;20225;-57
2024/01/15 07:08:42;;;;;;;16.47;2.50;;;;;;;;;;5094255;28;20211;-57
2024/01/15 07:11:08;;;;;;;11.43;2.27;;;;;;;;;;5094207;28;20172;-53
2024/01/15 07:13:34;;;;;;;18.10;2.97;;;;;;;;;;5093196;28;20645;-53
2024/01/15 07:16:00;;;;;;;7.73;1.97;;;;;;;;;;5093175;28;20240;-55
2024/01/15 07:18:26;;;;;;;5.77;2.10;;;;;;;;;;5094040;28;20199;-56
2024/01/15 07:20:52;;;;;;;9.63;1.60;;;;;;;;;;5092976;28;20179;-55
2024/01/15 07:23:18;;;;;;;10.23;2.03;;;;;;;;;;5095204;28;20452;-57
2024/01/15 07:25:44;;;;;;;15.10;2.37;;;;;;;;;;5094058;28;20207;-57
2024/01/15 07:28:10;;;;;;;10.70;2.37;;;;;;;;;;5094422;28;20202;-55
2024/01/15 07:30:38;;;;;;;10.57;2.33;;;;;;;;;;5093668;28;20482;-57
2024/01/15 07:33:04;;;;;;;8.17;1.30;;;;;;;;;;5092542;28;20234;-57
2024/01/15 07:35:31;;;;;;;14.37;2.53;;;;;;;;;;5094825;28;20267;-57
2024/01/15 07:37:57;;;;;;;12.53;2.33;;;;;;;;;;5093103;28;20203;-57
2024/01/15 07:40:24;;;;;;;8.77;1.97;;;;;;;;;;5092917;28;20233;-57
2024/01/15 07:42:50;;;;;;;10.87;2.03;;;;;;;;;;5093405;28;20315;-57
2024/01/15 07:45:16;;;;;;;10.50;2.07;;;;;;;;;;5092551;28;20274;-57
2024/01/15 07:47:42;;;;;;;8.43;2.03;;;;;;;;;;5093899;28;20231;-57
2024/01/15 07:50:08;;;;;;;7.80;1.50;;;;;;;;;;5094786;28;20206;-57
2024/01/15 07:52:34;;;;;;;9.03;1.40;;;;;;;;;;5094498;28;20258;-53
2024/01/15 07:55:00;;;;;;;11.37;2.23;;;;;;;;;;5094533;28;20275;-55
2024/01/15 07:57:26;;;;;;;11.57;1.77;;;;;;;;;;5093095;28;20179;-55
2024/01/15 07:59:52;;;;;;;10.33;1.70;;;;;;;;;;5092787;28;20297;-56
2024/01/15 08:02:18;;;;;;;9.00;1.60;;;;;;;;;;5092128;28;20180;-54
2024/01/15 08:04:45;;;;;;;16.67;2.63;;;;;;;;;;5092286;28;20220;-53
2024/01/15 08:07:13;;;;;;;8.83;2.30;;;;;;;;;;5092727;28;20167;-56
2024/01/15 08:09:39;;;;;;;6.07;2.20;;;;;;;;;;5091978;28;20175;-55
2024/01/15 08:12:06;;;;;;;5.60;1.73;;;;;;;;;;5092998;28;20172;-56
2024/01/15 08:14:31;;;;;;;6.23;1.73;;;;;;;;;;5112813;28;20171;-54
2024/01/15 08:16:57;;;;;;;15.43;1.83;;;;;;;;;;5114030;28;20259;-56
2024/01/15 08:19:23;;;;;;;7.87;2.30;;;;;;;;;;5113452;28;20256;-57
2024/01/15 08:21:49;;;;;;;6.90;1.70;;;;;;;;;;5097220;28;20262;-55
2024/01/15 08:24:16;;;;;;;8.27;1.83;;;;;;;;;;5095675;28;20282;-56
2024/01/15 08:26:42;;;;;;;10.77;2.53;;;;;;;;;;5095991;28;20175;-56
2024/01/15 08:29:08;;;;;;;8.90;2.30;;;;;;;;;;5096250;28;20172;-56
2024/01/15 08:31:35;;;;;;;13.70;2.70;;;;;;;;;;5095402;28;20178;-57
2024/01/15 08:34:01;;;;;;;8.50;2.13;;;;;;;;;;5112877;28;20204;-57
2024/01/15 08:36:29;;;;;;;4.13;2.23;;;;;;;;;;5095384;28;20175;-56
2024/01/15 08:38:55;;;;;;;6.30;1.53;;;;;;;;;;5095588;28;20211;-55
2024/01/15 08:41:21;;;;;;;11.33;1.77;;;;;;;;;;5094766;28;20178;-57
2024/01/15 08:43:47;;;;;;;7.57;2.10;;;;;;;;;;5110549;28;20171;-54
2024/01/15 08:46:13;;;;;;;13.30;2.93;;;;;;;;;;5095021;28;20225;-57
2024/01/15 08:48:39;;;;;;;10.83;2.37;;;;;;;;;;5093768;28;20167;-57
2024/01/15 08:51:06;;;;;;;14.97;2.67;;;;;;;;;;5094806;28;20475;-55
2024/01/15 08:53:32;;;;;;;13.40;1.50;;;;;;;;;;5112285;28;20197;-54
2024/01/15 08:55:58;;;;;;;6.83;1.40;;;;;;;;;;5096091;28;20159;-55
2024/01/15 08:58:25;;;;;;;7.37;1.67;;;;;;;;;;5096658;28;20171;-57
2024/01/15 09:00:51;;;;;;;6.47;1.63;;;;;;;;;;5096811;28;20171;-57
2024/01/15 09:03:17;;;;;;;10.43;1.33;;;;;;;;;;5114779;28;20171;-55
2024/01/15 09:05:43;;;;;;;7.87;1.40;;;;;;;;;;5095382;28;20197;-56
2024/01/15 09:08:09;;;;;;;5.10;1.20;;;;;;;;;;5114629;28;20271;-56
2024/01/15 09:10:35;;;;;;;4.97;1.87;;;;;;;;;;5097057;28;20179;-54
2024/01/15 09:13:01;;;;;;;5.20;1.33;;;;;;;;;;5092105;28;20228;-56
2024/01/15 09:15:27;;;;;;;8.60;2.13;;;;;;;;;;5094152;28;20168;-57
2024/01/15 09:17:53;;;;;;;11.23;2.47;;;;;;;;;;5096373;28;20252;-57
2024/01/15 09:20:19;;;;;;;11.23;1.63;;;;;;;;;;5097135;28;20570;-54
2024/01/15 09:22:45;;;;;;;7.57;1.97;;;;;;;;;;5096490;28;20608;-53
2024/01/15 09:25:11;;;;;;;8.40;2.20;;;;;;;;;;5096613;28;20172;-56
2024/01/15 09:27:37;;;;;;;5.57;1.80;;;;;;;;;;5097436;28;20176;-57
2024/01/15 09:30:04;;;;;;;8.77;1.90;;;;;;;;;;5098699;28;20172;-56
2024/01/15 09:32:30;;;;;;;2.47;0.93;;;;;;;;;;5097756;28;20249;-57
2024/01/15 09:34:57;;;;;;;7.77;2.33;;;;;;;;;;5098329;28;20211;-57
2024/01/15 09:37:23;;;;;;;5.37;1.53;;;;;;;;;;5098451;28;20179;-56
2024/01/15 09:39:49;;;;;;;9.07;1.40;;;;;;;;;;5096290;28;20269;-56
2024/01/15 09:42:16;;;;;;;7.00;1.83;;;;;;;;;;5095456;28;20459;-55
2024/01/15 09:44:42;;;;;;;9.43;1.90;;;;;;;;;;5093343;28;20170;-58
2024/01/15 09:47:10;;;;;;;3.80;1.50;;;;;;;;;;5094021;28;20168;-55
2024/01/15 09:49:37;;;;;;;9.37;2.10;;;;;;;;;;5093951;28;20176;-58
2024/01/15 09:52:04;;;;;;;3.37;1.13;;;;;;;;;;5094678;28;20209;-57
2024/01/15 09:54:30;;;;;;;4.00;0.70;;;;;;;;;;5094391;28;20184;-56
2024/01/15 09:56:57;;;;;;;2.20;0.90;;;;;;;;;;5093197;28;20172;-56
2024/01/15 09:59:24;;;;;;;5.30;1.07;;;;;;;;;;5091704;28;20754;-58
2024/01/15 10:01:52;;;;;;;13.07;1.10;;;;;;;;;;5094087;28;20523;-57
2024/01/15 10:04:18;;;;;;;6.37;1.27;;;;;;;;;;5092704;28;20168;-57
2024/01/15 10:06:45;;;;;;;7.13;1.50;;;;;;;;;;5092640;28;20168;-57
2024/01/15 10:09:16;;;;;;;7.40;2.40;;;;;;;;;;5091538;28;20270;-57
2024/01/15 10:11:43;;;;;;;11.93;1.97;;;;;;;;;;5091846;28;20168;-57
2024/01/15 10:14:13;;;;;;;4.30;1.50;;;;;;;;;;5091119;28;20232;-55
2024/01/15 10:16:40;;;;;;;9.93;1.53;;;;;;;;;;5090744;28;20215;-56
2024/01/15 10:19:08;;;;;;;10.87;1.10;;;;;;;;;;5090486;28;20255;-55
2024/01/15 10:21:34;;;;;;;12.10;1.50;;;;;;;;;;5092739;28;20189;-55
2024/01/15 10:24:05;;;;;;;11.67;2.03;;;;;;;;;;5094272;28;20630;-55
2024/01/15 10:26:31;;;;;;;8.87;1.37;;;;;;;;;;5093172;28;20172;-54
2024/01/15 10:29:01;;;;;;;6.23;1.00;;;;;;;;;;5094741;28;20172;-52
2024/01/15 10:31:28;;;;;;;5.83;1.13;;;;;;;;;;5095836;28;20195;-57
2024/01/15 10:33:54;;;;;;;3.33;0.80;;;;;;;;;;5095021;28;20168;-54
2024/01/15 10:36:22;;;;;;;2.30;0.87;;;;;;;;;;5095174;28;20168;-56
2024/01/15 10:38:48;;;;;;;2.23;0.80;;;;;;;;;;5094563;28;20222;-58
2024/01/15 10:41:14;;;;;;;4.17;0.80;;;;;;;;;;5094645;28;20164;-54
2024/01/15 10:43:41;;;;;;;3.10;0.80;;;;;;;;;;5095547;28;20240;-57
2024/01/15 10:46:08;;;;;;;3.60;0.80;;;;;;;;;;5093918;28;20528;-57
2024/01/15 10:48:35;;;;;;;5.87;1.03;;;;;;;;;;5092847;28;20203;-55
2024/01/15 10:51:10;;;;;;;3.50;1.17;;;;;;;;;;5092676;28;20224;-56
2024/01/15 10:53:36;;;;;;;7.93;1.27;;;;;;;;;;5092842;28;20175;-57
2024/01/15 10:56:03;;;;;;;6.30;1.60;;;;;;;;;;5092479;28;20207;-56
2024/01/15 10:58:31;;;;;;;4.63;1.33;;;;;;;;;;5087222;28;20172;-56
2024/01/15 11:00:57;;;;;;;2.53;1.60;;;;;;;;;;5087155;28;20179;-54
2024/01/15 11:03:23;;;;;;;1.57;1.00;;;;;;;;;;5088101;28;20200;-57
2024/01/15 11:05:50;;;;;;;5.03;1.57;;;;;;;;;;5085778;28;20208;-56
2024/01/15 11:08:18;;;;;;;3.17;1.03;;;;;;;;;;5085395;28;20172;-54
2024/01/15 11:10:49;;;;;;;1.60;0.70;;;;;;;;;;5085199;28;20164;-57
2024/01/15 11:13:16;;;;;;;1.87;1.20;;;;;;;;;;5085357;28;20774;-55
2024/01/15 11:15:55;;;;;;;4.47;1.50;;;;;;;;;;5088629;28;20175;-56
2024/01/15 11:18:22;;;;;;;3.97;0.60;;;;;;;;;;5090236;28;20258;-56
2024/01/15 11:21:07;;;;;;;6.43;1.10;;;;;;;;;;5090734;28;20201;-58
2024/01/15 11:23:43;;;;;;;4.87;1.00;;;;;;;;;;5091461;28;20184;-56
2024/01/15 11:26:27;;;;;;;2.93;1.00;;;;;;;;;;5090613;28;20279;-57
2024/01/15 11:28:55;;;;;;;2.87;1.20;;;;;;;;;;5091013;28;20179;-58
2024/01/15 11:31:20;;;;;;;1.47;1.00;;;;;;;;;;5092600;28;20168;-57
2024/01/15 11:33:50;;;;;;;3.40;1.10;;;;;;;;;;5093931;28;20237;-56
2024/01/15 11:36:16;;;;;;;3.47;1.10;;;;;;;;;;5093443;28;20263;-55
2024/01/15 11:38:42;;;;;;;1.50;1.10;;;;;;;;;;5093738;28;20200;-57
2024/01/15 11:41:18;;;;;;;1.37;1.10;;;;;;;;;;5093406;28;20193;-55
2024/01/15 11:43:44;;;;;;;4.03;1.30;;;;;;;;;;5093374;28;20171;-54
2024/01/15 11:46:12;;;;;;;6.20;1.40;;;;;;;;;;5092953;28;20170;-57
2024/01/15 11:48:45;;;;;;;1.10;1.00;;;;;;;;;;5090550;28;20171;-58
2024/01/15 11:51:12;;;;;;;3.80;1.30;;;;;;;;;;5089818;28;20208;-55
2024/01/15 11:53:48;;;;;;;3.93;1.00;;;;;;;;;;5090709;28;20187;-56
2024/01/15 11:56:17;;;;;;;2.67;1.10;;;;;;;;;;5092036;28;20237;-55
2024/01/15 11:58:44;;;;;;;4.23;0.97;;;;;;;;;;5091227;28;20647;-56
2024/01/15 12:01:13;;;;;;;4.17;1.30;;;;;;;;;;5092903;28;20206;-58
2024/01/15 12:03:41;;;;;;;3.47;1.00;;;;;;;;;;5091201;28;20663;-57
2024/01/15 12:06:07;;;;;;;5.23;0.87;;;;;;;;;;5092063;28;20203;-57
2024/01/15 12:08:33;;;;;;;1.67;1.00;;;;;;;;;;5091920;28;20248;-58
2024/01/15 12:11:00;;;;;;;1.93;0.90;;;;;;;;;;5090989;28;20172;-57
2024/01/15 12:13:29;;;;;;;7.00;1.23;;;;;;;;;;5090312;28;20228;-57
2024/01/15 12:15:55;;;;;;;2.13;1.17;;;;;;;;;;5091336;28;20168;-56
2024/01/15 12:18:23;;;;;;;3.53;0.90;;;;;;;;;;5091576;28;20168;-58
2024/01/15 12:20:49;;;;;;;4.10;1.30;;;;;;;;;;5090816;28;20708;-57
2024/01/15 12:23:16;;;;;;;3.07;1.20;;;;;;;;;;5093249;28;20179;-57
2024/01/15 12:25:42;;;;;;;4.17;0.90;;;;;;;;;;5094496;28;20178;-61
2024/01/15 12:28:10;;;;;;;6.93;1.37;;;;;;;;;;5093901;28;20175;-60
2024/01/15 12:30:37;;;;;;;2.00;1.03;;;;;;;;;;5093254;28;20180;-60
2024/01/15 12:33:07;;;;;;;1.37;0.90;;;;;;;;;;5093899;28;20358;-57
2024/01/15 12:35:34;;;;;;;2.33;1.17;;;;;;;;;;5092636;28;20248;-58
2024/01/15 12:38:03;;;;;;;4.83;0.80;;;;;;;;;;5091550;28;20175;-58
2024/01/15 12:40:29;;;;;;;5.53;1.30;;;;;;;;;;5090979;28;20268;-57
2024/01/15 12:42:57;;;;;;;3.13;1.50;;;;;;;;;;5091052;28;20164;-55
2024/01/15 12:45:24;;;;;;;3.57;1.50;;;;;;;;;;5092353;28;20245;-55
2024/01/15 12:47:51;;;;;;;5.50;1.00;;;;;;;;;;5088599;28;20608;-57
2024/01/15 12:50:18;;;;;;;3.00;1.40;;;;;;;;;;5093709;28;20258;-55
2024/01/15 12:52:44;;;;;;;6.00;1.30;;;;;;;;;;5093606;28;20175;-57
2024/01/15 12:55:12;;;;;;;4.07;1.30;;;;;;;;;;5093044;28;20248;-57
2024/01/15 12:57:38;;;;;;;4.50;1.10;;;;;;;;;;5094257;28;20263;-58
2024/01/15 13:00:07;;;;;;;4.40;1.80;;;;;;;;;;5093521;28;20199;-55
2024/01/15 13:02:33;;;;;;;3.33;1.60;;;;;;;;;;5094751;28;20168;-55
2024/01/15 13:05:00;;;;;;;3.00;1.07;;;;;;;;;;5094891;28;20168;-57
2024/01/15 13:07:27;;;;;;;0.77;0.77;;;;;;;;;;5092841;28;20176;-57
2024/01/15 13:09:53;;;;;;;3.07;1.40;;;;;;;;;;5093907;28;20870;-56
2024/01/15 13:12:20;;;;;;;2.37;1.23;;;;;;;;;;5094115;28;20249;-57
2024/01/15 13:14:47;;;;;;;2.67;1.47;;;;;;;;;;5092326;28;20175;-54
2024/01/15 13:17:14;;;;;;;3.73;0.93;;;;;;;;;;5094063;28;20187;-55
2024/01/15 13:19:41;;;;;;;1.13;0.90;;;;;;;;;;5093808;28;20210;-57
2024/01/15 13:22:08;;;;;;;1.40;1.00;;;;;;;;;;5093837;28;20183;-57
2024/01/15 13:24:36;;;;;;;1.40;1.10;;;;;;;;;;5094191;28;20168;-57
2024/01/15 13:27:04;;;;;;;3.53;1.17;;;;;;;;;;5094976;28;20507;-58
2024/01/15 13:29:30;;;;;;;2.20;1.17;;;;;;;;;;5113073;28;20176;-58
2024/01/15 13:31:59;;;;;;;2.73;1.23;;;;;;;;;;5095285;28;20178;-57
2024/01/15 13:34:26;;;;;;;3.83;0.90;;;;;;;;;;5097538;28;20182;-57
2024/01/15 13:36:53;;;;;;;4.13;1.20;;;;;;;;;;5097701;28;20180;-58
2024/01/15 13:39:20;;;;;;;5.00;1.20;;;;;;;;;;5097006;28;20211;-55
2024/01/15 13:41:52;;;;;;;3.50;1.20;;;;;;;;;;5097443;28;20171;-57
2024/01/15 13:44:18;;;;;;;4.23;1.00;;;;;;;;;;5096926;28;20167;-57
2024/01/15 13:46:44;;;;;;;1.03;0.80;;;;;;;;;;5096121;28;20167;-57
2024/01/15 13:49:10;;;;;;;2.17;0.87;;;;;;;;;;5093854;28;20174;-58
2024/01/15 13:51:36;;;;;;;2.70;1.00;;;;;;;;;;5095686;28;20175;-58
2024/01/15 13:54:04;;;;;;;6.07;1.10;;;;;;;;;;5096686;28;20182;-57
2024/01/15 13:56:32;;;;;;;3.23;1.13;;;;;;;;;;5113731;28;20168;-57
2024/01/15 13:58:59;;;;;;;1.53;1.00;;;;;;;;;;5097022;28;20199;-56
2024/01/15 14:01:26;;;;;;;0.97;0.90;;;;;;;;;;5112351;28;20216;-58
2024/01/15 14:03:54;;;;;;;2.17;1.00;;;;;;;;;;5113925;28;20170;-57
2024/01/15 14:06:22;;;;;;;3.13;1.23;;;;;;;;;;5095398;28;20557;-57
2024/01/15 14:08:49;;;;;;;1.90;1.53;;;;;;;;;;5096604;28;20435;-57
2024/01/15 14:11:15;;;;;;;3.93;1.10;;;;;;;;;;5095430;28;20585;-57
2024/01/15 14:13:41;;;;;;;1.83;1.10;;;;;;;;;;5093363;28;20232;-57
2024/01/15 14:16:09;;;;;;;2.50;1.40;;;;;;;;;;5092069;28;20179;-55
2024/01/15 14:18:35;;;;;;;4.63;1.70;;;;;;;;;;5093326;28;20279;-56
2024/01/15 14:21:01;;;;;;;2.93;1.00;;;;;;;;;;5092001;28;20229;-57
2024/01/15 14:23:28;;;;;;;2.27;1.03;;;;;;;;;;5093282;28;20168;-57
2024/01/15 14:25:55;;;;;;;2.43;1.10;;;;;;;;;;5092590;28;20179;-57
2024/01/15 14:28:23;;;;;;;3.70;1.17;;;;;;;;;;5093935;28;20180;-55
2024/01/15 14:30:51;;;;;;;2.63;1.47;;;;;;;;;;5093172;28;20222;-58
2024/01/15 14:33:17;;;;;;;3.00;1.10;;;;;;;;;;5091717;28;20256;-58
2024/01/15 14:35:44;;;;;;;3.00;1.10;;;;;;;;;;5091341;28;20375;-57
2024/01/15 14:38:10;;;;;;;1.30;1.00;;;;;;;;;;5092282;28;20259;-57